Airfield :
LOGIN :

Register | Disclaimer

   EN    FR    IT 

 










Legend :    VFR   Marginal VFR   IFR   Intensive IFR   Very Intensive IFR
Visi :
Ceiling :
>= 8 km
>= 3000ft
5 to 8 km
1000 to 3000 ft
1500m to 5 km
500 to 1000 ft
800 to 1500m
200 to 500 ft
< 800m
< 200 ft
Symbols :   Thunderstorms  Fog  Heavy snow  Heavy precipitations  Wind > 20 kt
SIGMETs :     Misc.  Thunderstorms  Icing  Turbulence  Mountain Waves  Volcanic Ashes







- Airport Elevation : 236 ft
- IATA code : MMX


ESMS - Malmö Sturup

CURRENT METAR :
  • 192020Z 21005KT CAVOK 12/11 Q1013

EXPIRED METARs :
  • 191950Z 24006KT CAVOK 12/10 Q1013
  • 191920Z 24007KT 9999 FEW025 SCT050 BKN150 12/10 Q1013
  • 191850Z 23006KT 9999 FEW028 13/10 Q1013
  • 191820Z 23006KT 9999 FEW042 13/10 Q1013
  • 191750Z 24007KT CAVOK 13/10 Q1013
  • 191720Z 24009KT CAVOK 13/10 Q1013

TAF TAF ESMS
Valid from the 19 at 18:00 until the 20 at 18:00 UTC


191656Z 1918/2018 25010KT 9999 SCT025
TEMPO 1918/1922 SHRA SCT020CB
TEMPO 1922/2012 3000 SHRA BKN006 SCT020CB
TEMPO 2012/2018 SHRA BKN012 SCT020CB
No reported NOTAMs for that airfield.



MET'MAP, your aeronautical weather chart ! - Copyright ORBIFLY December 2007 - Disclaimer

ORBIFLY MET'MAP TEAM :

Programming & Development : Alexandra Zaïnal
Concept & Development : Baudouin d'Aumeries
Co-Development & Prog : Marc-Olivier Méhu
Technical & hardware support : Manuel Goepfert

Contact : metmap@orbifly.com




SOURCES & CREDITS :

   NOAA